Time;durP1;ratioP1;P1;durP2;ratioP2;P2;SDS_P1;SDS_P2;PMS_P1;PMS_P2;Temp;Humidity;BMP_temperature;BMP_pressure;BME280_temperature;BME280_humidity;BME280_pressure;Samples;Min_cycle;Max_cycle;Signal;HPM_P1;HPM_P2
2023/07/03 00:00:45;;;;;;;7.45;3.40;;;15.00;99.90;;;;;;5072545;28;20418;-73
2023/07/03 00:03:13;;;;;;;9.05;3.75;;;14.90;99.90;;;;;;5072372;28;20037;-72
2023/07/03 00:05:43;;;;;;;8.95;3.80;;;14.90;99.90;;;;;;5073381;28;20488;-72
2023/07/03 00:08:10;;;;;;;9.32;4.30;;;14.90;99.90;;;;;;5072843;28;20131;-71
2023/07/03 00:10:36;;;;;;;11.00;3.90;;;15.00;99.90;;;;;;5073362;28;20127;-72
2023/07/03 00:13:01;;;;;;;10.57;3.60;;;15.00;99.90;;;;;;5073607;28;20120;-72
2023/07/03 00:15:27;;;;;;;11.50;3.08;;;15.00;99.90;;;;;;5073505;28;20129;-72
2023/07/03 00:17:53;;;;;;;11.73;3.65;;;15.00;99.90;;;;;;5072546;28;20048;-73
2023/07/03 00:20:18;;;;;;;7.97;3.47;;;15.00;99.90;;;;;;5073404;28;20067;-73
2023/07/03 00:22:46;;;;;;;10.23;3.70;;;15.00;99.90;;;;;;5073393;28;20044;-73
2023/07/03 00:25:12;;;;;;;11.70;3.50;;;15.00;99.90;;;;;;5073192;28;20040;-74
2023/07/03 00:27:38;;;;;;;9.18;3.78;;;15.00;99.90;;;;;;5073160;28;20120;-73
2023/07/03 00:30:05;;;;;;;6.53;3.33;;;15.10;99.90;;;;;;5072765;28;20106;-72
2023/07/03 00:32:31;;;;;;;6.40;3.70;;;15.10;99.90;;;;;;5055128;28;20071;-72
2023/07/03 00:34:58;;;;;;;6.85;3.20;;;15.20;99.90;;;;;;5073231;28;20119;-72
2023/07/03 00:37:24;;;;;;;8.25;3.42;;;15.20;99.90;;;;;;5072616;28;20488;-72
2023/07/03 00:39:50;;;;;;;11.02;3.53;;;15.20;99.90;;;;;;5072744;28;20037;-73
2023/07/03 00:42:15;;;;;;;9.98;3.72;;;15.20;99.90;;;;;;5072005;28;20511;-72
2023/07/03 00:44:41;;;;;;;10.23;3.90;;;15.20;99.90;;;;;;5071749;28;20464;-73
2023/07/03 00:47:10;;;;;;;9.43;3.88;;;15.20;99.90;;;;;;5072809;28;20094;-72
2023/07/03 00:49:36;;;;;;;7.78;3.92;;;15.20;99.90;;;;;;5072934;28;20039;-72
2023/07/03 00:52:02;;;;;;;9.57;3.60;;;15.20;99.90;;;;;;5072995;28;20123;-72
2023/07/03 00:54:29;;;;;;;13.45;3.88;;;15.10;99.90;;;;;;5071887;28;20048;-72
2023/07/03 00:56:55;;;;;;;7.00;2.97;;;15.10;99.90;;;;;;5072954;28;20036;-72
2023/07/03 00:59:21;;;;;;;9.07;3.72;;;15.10;99.90;;;;;;5073092;28;20128;-72
2023/07/03 01:01:55;;;;;;;7.63;3.88;;;15.10;99.90;;;;;;5073004;28;20056;-73
2023/07/03 01:04:26;;;;;;;8.63;3.78;;;15.10;99.90;;;;;;5073047;28;20051;-73
2023/07/03 01:07:00;;;;;;;8.13;3.60;;;15.10;99.90;;;;;;5071677;28;20094;-72
2023/07/03 01:09:31;;;;;;;7.35;3.95;;;15.10;99.90;;;;;;5072390;28;20119;-73
2023/07/03 01:11:58;;;;;;;7.25;4.00;;;15.10;99.90;;;;;;5073305;28;20051;-74
2023/07/03 01:14:25;;;;;;;7.15;3.35;;;15.10;99.90;;;;;;5074954;28;20052;-71
2023/07/03 01:16:51;;;;;;;11.70;3.45;;;15.10;99.90;;;;;;5074350;28;20489;-73
2023/07/03 01:19:23;;;;;;;13.48;3.78;;;15.10;99.90;;;;;;5072942;28;20032;-73
2023/07/03 01:22:08;;;;;;;9.05;3.28;;;15.20;99.90;;;;;;5072698;28;20040;-73
2023/07/03 01:24:47;;;;;;;9.75;3.80;;;15.20;99.90;;;;;;5072752;28;20044;-74
2023/07/03 01:27:18;;;;;;;8.85;3.42;;;15.20;99.90;;;;;;5072634;28;20119;-74
2023/07/03 01:29:47;;;;;;;7.80;3.97;;;15.10;99.90;;;;;;5071947;28;21139;-73
2023/07/03 01:32:14;;;;;;;8.95;3.40;;;15.20;99.90;;;;;;5072549;28;20044;-75
2023/07/03 01:34:45;;;;;;;9.50;3.70;;;15.20;99.90;;;;;;5072671;28;20040;-74
2023/07/03 01:37:13;;;;;;;8.70;4.03;;;15.10;99.90;;;;;;5072138;28;20044;-74
2023/07/03 01:39:43;;;;;;;9.38;3.42;;;15.20;99.90;;;;;;5072176;28;20049;-74
2023/07/03 01:42:10;;;;;;;8.80;3.47;;;15.20;99.90;;;;;;5073760;28;20139;-74
2023/07/03 01:44:36;;;;;;;8.80;3.60;;;15.20;99.90;;;;;;5076170;28;20037;-75
2023/07/03 01:47:08;;;;;;;7.03;3.70;;;15.20;99.90;;;;;;5076036;28;20050;-74
2023/07/03 01:49:34;;;;;;;10.93;3.33;;;15.30;99.90;;;;;;5076126;28;20037;-74
2023/07/03 01:52:11;;;;;;;10.40;4.22;;;15.30;99.90;;;;;;5076189;28;20051;-75
2023/07/03 01:55:05;;;;;;;12.68;3.92;;;15.30;99.90;;;;;;5075102;28;20037;-76
2023/07/03 01:58:05;;;;;;;10.70;3.38;;;15.30;99.90;;;;;;5076492;28;20137;-74
2023/07/03 02:00:33;;;;;;;10.43;3.55;;;15.30;99.90;;;;;;5076068;28;20120;-76
2023/07/03 02:03:05;;;;;;;7.70;3.85;;;15.30;99.90;;;;;;5076100;28;20119;-74
2023/07/03 02:05:36;;;;;;;8.35;3.78;;;15.30;99.90;;;;;;5075965;28;20135;-75
2023/07/03 02:08:04;;;;;;;9.73;3.60;;;15.30;99.90;;;;;;5074715;28;20120;-75
2023/07/03 02:10:30;;;;;;;10.18;3.78;;;15.30;99.90;;;;;;5074938;28;20468;-74
2023/07/03 02:12:55;;;;;;;14.38;4.63;;;15.30;99.90;;;;;;5075542;28;20048;-74
2023/07/03 02:15:21;;;;;;;10.13;3.78;;;15.40;99.90;;;;;;5075813;28;20114;-75
2023/07/03 02:17:47;;;;;;;12.13;3.33;;;15.40;99.90;;;;;;5075346;28;20048;-74
2023/07/03 02:20:16;;;;;;;10.70;3.80;;;15.30;99.90;;;;;;5075616;28;20044;-75
2023/07/03 02:22:42;;;;;;;9.50;3.85;;;15.30;99.90;;;;;;5075198;28;20515;-75
2023/07/03 02:25:11;;;;;;;13.73;3.80;;;15.30;99.90;;;;;;5075565;28;20041;-76
2023/07/03 02:27:37;;;;;;;9.45;3.42;;;15.30;99.90;;;;;;5075558;28;20045;-74
2023/07/03 02:30:04;;;;;;;9.77;3.47;;;15.30;99.90;;;;;;5075119;28;20059;-74
2023/07/03 02:32:39;;;;;;;9.43;3.40;;;15.30;99.90;;;;;;5074164;28;20465;-74
2023/07/03 02:35:06;;;;;;;11.80;3.40;;;15.20;99.90;;;;;;5075232;28;20044;-75
2023/07/03 02:37:32;;;;;;;10.95;3.65;;;15.20;99.90;;;;;;5074241;28;20035;-74
2023/07/03 02:39:58;;;;;;;9.00;4.15;;;15.20;99.90;;;;;;5074848;28;20044;-74
2023/07/03 02:42:24;;;;;;;9.60;3.20;;;15.20;99.90;;;;;;5075153;28;20051;-75
2023/07/03 02:44:51;;;;;;;12.02;3.70;;;15.20;99.90;;;;;;5074850;28;20121;-74
2023/07/03 02:47:17;;;;;;;9.05;3.63;;;15.20;99.90;;;;;;5075143;28;20044;-74
2023/07/03 02:49:42;;;;;;;12.10;4.05;;;15.30;99.90;;;;;;5075050;28;20124;-74
2023/07/03 02:52:08;;;;;;;10.32;3.60;;;15.30;99.90;;;;;;5075135;28;20079;-74
2023/07/03 02:54:34;;;;;;;7.53;3.72;;;15.30;99.90;;;;;;5074359;28;20481;-74
2023/07/03 02:56:59;;;;;;;8.73;3.70;;;15.30;99.90;;;;;;5074912;28;20048;-74
2023/07/03 02:59:25;;;;;;;8.48;3.08;;;15.30;99.90;;;;;;5074591;28;20111;-74
2023/07/03 03:01:51;;;;;;;11.15;3.50;;;15.40;99.90;;;;;;5074788;28;20036;-74
2023/07/03 03:04:17;;;;;;;7.63;3.20;;;15.40;99.90;;;;;;5074846;28;20109;-74
2023/07/03 03:06:43;;;;;;;14.52;3.53;;;15.30;99.90;;;;;;5074533;28;20051;-73
2023/07/03 03:09:09;;;;;;;6.82;3.58;;;15.40;99.90;;;;;;5074249;28;20037;-75
2023/07/03 03:11:36;;;;;;;10.65;2.90;;;15.40;99.90;;;;;;5074513;28;20500;-75
2023/07/03 03:14:02;;;;;;;8.25;3.42;;;15.40;99.90;;;;;;5074145;28;20465;-74
2023/07/03 03:16:28;;;;;;;10.68;3.80;;;15.40;99.90;;;;;;5074734;28;20044;-74
2023/07/03 03:18:54;;;;;;;9.05;3.63;;;15.40;99.90;;;;;;5074432;28;20040;-73
2023/07/03 03:21:20;;;;;;;8.50;3.40;;;15.40;99.90;;;;;;5074381;28;20477;-74
2023/07/03 03:23:46;;;;;;;13.02;3.80;;;15.40;99.90;;;;;;5074349;28;20044;-74
2023/07/03 03:26:12;;;;;;;11.07;3.90;;;15.30;99.90;;;;;;5073745;28;20485;-74
2023/07/03 03:28:38;;;;;;;10.90;3.95;;;15.30;99.90;;;;;;5074037;28;20040;-73
2023/07/03 03:31:04;;;;;;;12.32;4.15;;;15.30;99.90;;;;;;5074295;28;20370;-74
2023/07/03 03:33:30;;;;;;;13.20;3.97;;;15.20;99.90;;;;;;5074117;28;20044;-73
2023/07/03 03:35:56;;;;;;;10.05;3.47;;;15.20;99.90;;;;;;5072891;28;20040;-74
2023/07/03 03:38:22;;;;;;;12.10;4.18;;;15.10;99.90;;;;;;5072289;28;20052;-75
2023/07/03 03:40:59;;;;;;;8.35;3.40;;;15.10;99.90;;;;;;5056255;28;20040;-76
2023/07/03 03:43:25;;;;;;;11.20;3.13;;;15.00;99.90;;;;;;5073843;28;20040;-74
2023/07/03 03:45:59;;;;;;;9.15;3.67;;;14.90;99.90;;;;;;5074178;28;20418;-74
2023/07/03 03:48:25;;;;;;;8.98;3.65;;;14.90;99.90;;;;;;5073901;28;20043;-73
2023/07/03 03:50:51;;;;;;;11.85;3.40;;;14.80;99.90;;;;;;5073549;28;20044;-74
2023/07/03 03:53:17;;;;;;;11.15;3.58;;;14.80;99.90;;;;;;5073293;28;20036;-74
2023/07/03 03:55:43;;;;;;;10.63;3.85;;;14.70;99.90;;;;;;5073442;28;20040;-75
2023/07/03 03:58:09;;;;;;;11.57;3.88;;;14.70;99.90;;;;;;5072098;28;20380;-73
2023/07/03 04:00:35;;;;;;;8.32;3.38;;;14.70;99.90;;;;;;5073592;28;20043;-73
2023/07/03 04:03:01;;;;;;;9.25;3.33;;;14.60;99.90;;;;;;5073428;28;20094;-73
2023/07/03 04:05:27;;;;;;;8.50;3.42;;;14.60;99.90;;;;;;5072661;28;20415;-73
2023/07/03 04:07:53;;;;;;;8.35;4.15;;;14.50;99.90;;;;;;5073507;28;20082;-73
2023/07/03 04:10:19;;;;;;;9.52;3.80;;;14.50;99.90;;;;;;5073478;28;20055;-74
2023/07/03 04:12:44;;;;;;;7.35;3.05;;;14.40;99.90;;;;;;5073437;28;20476;-74
2023/07/03 04:15:10;;;;;;;9.57;3.67;;;14.40;99.90;;;;;;5073612;28;20126;-73
2023/07/03 04:17:36;;;;;;;7.93;3.55;;;14.30;99.90;;;;;;5073367;28;20415;-74
2023/07/03 04:20:07;;;;;;;9.00;3.20;;;14.20;99.90;;;;;;5073408;28;20044;-73
2023/07/03 04:22:33;;;;;;;8.95;3.25;;;14.20;99.90;;;;;;5073362;28;20380;-74
2023/07/03 04:24:58;;;;;;;7.97;3.15;;;14.20;99.90;;;;;;5073408;28;20041;-73
2023/07/03 04:27:24;;;;;;;7.32;3.65;;;14.20;99.90;;;;;;5073036;28;20056;-74
2023/07/03 04:29:50;;;;;;;7.72;3.58;;;14.20;99.90;;;;;;5072770;28;20060;-73
2023/07/03 04:32:16;;;;;;;6.75;3.20;;;14.20;99.90;;;;;;5072023;28;20071;-73
2023/07/03 04:34:42;;;;;;;6.85;3.20;;;14.20;99.90;;;;;;5073297;28;20041;-74
2023/07/03 04:37:08;;;;;;;9.88;4.30;;;14.20;99.90;;;;;;5072912;28;20529;-73
2023/07/03 04:39:34;;;;;;;9.57;3.42;;;14.20;99.90;;;;;;5072606;28;20072;-72
2023/07/03 04:42:00;;;;;;;7.93;3.25;;;14.30;99.90;;;;;;5072832;28;20087;-73
2023/07/03 04:44:31;;;;;;;10.13;3.80;;;14.30;99.90;;;;;;5073728;28;20045;-74
2023/07/03 04:46:57;;;;;;;9.27;3.47;;;14.30;99.90;;;;;;5073486;28;20044;-74
2023/07/03 04:49:27;;;;;;;7.72;3.92;;;14.40;99.90;;;;;;5071963;28;20110;-74
2023/07/03 04:51:54;;;;;;;8.73;3.60;;;14.40;99.90;;;;;;5072915;28;20056;-74
2023/07/03 04:54:20;;;;;;;9.30;3.53;;;14.50;99.90;;;;;;5071606;28;20048;-73
2023/07/03 04:56:48;;;;;;;9.13;3.63;;;14.60;99.90;;;;;;5072804;28;20098;-74
2023/07/03 04:59:14;;;;;;;10.20;3.50;;;14.60;99.90;;;;;;5072840;28;20045;-74
2023/07/03 05:01:43;;;;;;;7.05;3.15;;;14.70;99.90;;;;;;5072500;28;20376;-73
2023/07/03 05:04:09;;;;;;;9.95;3.10;;;14.70;99.90;;;;;;5071670;28;20067;-74
2023/07/03 05:06:35;;;;;;;8.65;2.90;;;14.70;99.90;;;;;;5072958;28;20127;-74
2023/07/03 05:09:02;;;;;;;8.30;3.03;;;14.80;99.90;;;;;;5072180;28;20123;-73
2023/07/03 05:11:29;;;;;;;7.65;2.63;;;14.90;99.90;;;;;;5072329;28;20525;-73
2023/07/03 05:13:55;;;;;;;9.57;3.00;;;14.90;99.90;;;;;;5072797;28;20089;-74
2023/07/03 05:16:21;;;;;;;7.70;2.53;;;15.00;99.90;;;;;;5071325;28;20040;-73
2023/07/03 05:18:47;;;;;;;8.02;2.33;;;15.00;99.90;;;;;;5076241;28;20120;-72
2023/07/03 05:21:13;;;;;;;7.70;2.35;;;15.20;99.90;;;;;;5076398;28;20175;-73
2023/07/03 05:23:39;;;;;;;5.85;2.30;;;15.20;99.90;;;;;;5075162;28;20365;-74
2023/07/03 05:26:05;;;;;;;7.50;2.95;;;15.30;99.90;;;;;;5076292;28;20047;-74
2023/07/03 05:28:31;;;;;;;6.32;2.92;;;15.30;99.90;;;;;;5076455;28;20033;-74
2023/07/03 05:30:58;;;;;;;8.95;2.97;;;15.30;99.90;;;;;;5075995;28;20493;-75
2023/07/03 05:33:25;;;;;;;6.80;3.00;;;15.30;99.90;;;;;;5076340;28;20052;-73
2023/07/03 05:35:51;;;;;;;5.53;2.72;;;15.30;99.90;;;;;;5076367;28;20449;-74
2023/07/03 05:38:19;;;;;;;6.97;2.80;;;15.20;99.90;;;;;;5076957;28;20112;-73
2023/07/03 05:40:45;;;;;;;9.02;2.97;;;15.20;99.90;;;;;;5077209;28;20048;-74
2023/07/03 05:43:11;;;;;;;6.45;2.72;;;15.30;99.90;;;;;;5076992;28;20085;-73
2023/07/03 05:45:37;;;;;;;8.35;2.47;;;15.40;99.90;;;;;;5076352;28;20037;-74
2023/07/03 05:48:03;;;;;;;7.07;2.50;;;15.40;99.90;;;;;;5076092;28;20047;-74
2023/07/03 05:50:29;;;;;;;7.68;2.90;;;15.50;99.90;;;;;;5075866;28;20101;-75
2023/07/03 05:52:54;;;;;;;7.68;2.65;;;15.60;99.90;;;;;;5074807;28;20036;-73
2023/07/03 05:55:20;;;;;;;3.67;1.80;;;15.60;99.90;;;;;;5076270;28;20084;-74
2023/07/03 05:57:46;;;;;;;5.53;1.95;;;15.70;99.90;;;;;;5074620;28;20041;-75
2023/07/03 06:00:15;;;;;;;5.07;2.00;;;15.80;99.90;;;;;;5075878;28;20032;-73
2023/07/03 06:02:45;;;;;;;6.50;2.20;;;15.90;99.90;;;;;;5074904;28;20071;-74
2023/07/03 06:05:12;;;;;;;5.55;1.90;;;16.00;99.90;;;;;;5074778;28;20045;-74
2023/07/03 06:07:39;;;;;;;6.47;1.67;;;16.00;99.90;;;;;;5074542;28;20549;-75
2023/07/03 06:10:06;;;;;;;5.07;2.13;;;16.10;99.90;;;;;;5075310;28;20120;-74
2023/07/03 06:12:32;;;;;;;5.32;1.90;;;16.10;99.90;;;;;;5075860;28;20051;-76
2023/07/03 06:15:01;;;;;;;6.57;1.80;;;16.10;99.90;;;;;;5075516;28;20044;-73
2023/07/03 06:17:28;;;;;;;6.65;1.85;;;16.20;99.90;;;;;;5075717;28;20051;-73
2023/07/03 06:19:55;;;;;;;5.90;1.70;;;16.20;99.90;;;;;;5075460;28;20044;-74
2023/07/03 06:22:22;;;;;;;5.70;1.90;;;16.30;99.90;;;;;;5074669;28;20457;-75
2023/07/03 06:24:48;;;;;;;3.65;1.90;;;16.40;99.90;;;;;;5075166;28;20048;-75
2023/07/03 06:27:14;;;;;;;4.85;1.70;;;16.50;99.90;;;;;;5075313;28;20124;-74
2023/07/03 06:29:41;;;;;;;5.95;1.75;;;16.50;99.90;;;;;;5074281;28;20366;-73
2023/07/03 06:32:08;;;;;;;4.82;1.67;;;16.50;99.90;;;;;;5075522;28;20052;-74
2023/07/03 06:34:34;;;;;;;6.70;1.40;;;16.50;99.90;;;;;;5075259;28;20472;-75
2023/07/03 06:37:02;;;;;;;6.88;2.08;;;16.60;99.90;;;;;;5074981;28;20071;-74
2023/07/03 06:39:28;;;;;;;4.13;1.90;;;16.70;99.90;;;;;;5074593;28;20071;-74
2023/07/03 06:41:54;;;;;;;5.38;1.17;;;16.70;99.90;;;;;;5075219;28;20143;-73
2023/07/03 06:44:20;;;;;;;5.20;1.38;;;16.70;99.90;;;;;;5074825;28;20044;-74
2023/07/03 06:46:46;;;;;;;4.45;1.45;;;16.60;99.90;;;;;;5075017;28;20036;-73
2023/07/03 06:49:12;;;;;;;4.53;1.48;;;16.70;99.90;;;;;;5075115;28;20047;-74
2023/07/03 06:51:40;;;;;;;3.85;1.38;;;16.70;99.90;;;;;;5074656;28;20119;-74
2023/07/03 06:54:06;;;;;;;4.38;1.58;;;16.80;99.90;;;;;;5074865;28;20052;-74
2023/07/03 06:56:32;;;;;;;4.00;1.33;;;16.70;99.90;;;;;;5074928;28;20123;-73
2023/07/03 06:58:58;;;;;;;5.65;1.73;;;16.80;99.90;;;;;;5074989;28;20124;-74
2023/07/03 07:01:25;;;;;;;3.72;1.38;;;16.90;99.90;;;;;;5074864;28;20040;-73
2023/07/03 07:03:51;;;;;;;4.75;1.45;;;16.90;99.90;;;;;;5074849;28;20170;-74
2023/07/03 07:06:19;;;;;;;4.30;1.50;;;17.00;99.90;;;;;;5074337;28;20126;-73
2023/07/03 07:08:46;;;;;;;4.80;1.30;;;17.10;99.90;;;;;;5074261;28;20050;-72
2023/07/03 07:11:17;;;;;;;3.90;1.40;;;17.20;99.90;;;;;;5074669;28;20388;-74
2023/07/03 07:13:45;;;;;;;3.17;1.40;;;17.20;99.90;;;;;;5074706;28;20048;-74
2023/07/03 07:16:13;;;;;;;4.22;1.30;;;17.30;99.90;;;;;;5074294;28;20040;-76
2023/07/03 07:18:39;;;;;;;4.15;1.58;;;17.40;99.90;;;;;;5073954;28;20068;-66
2023/07/03 07:21:05;;;;;;;4.60;1.80;;;17.50;99.90;;;;;;5053837;28;20521;-65
2023/07/03 07:23:31;;;;;;;4.88;1.40;;;17.70;99.90;;;;;;5070893;28;20048;-65
2023/07/03 07:25:56;;;;;;;4.18;1.52;;;17.80;99.90;;;;;;5073285;28;20048;-64
2023/07/03 07:28:22;;;;;;;4.35;1.38;;;17.70;99.90;;;;;;5073361;28;20114;-64
2023/07/03 07:30:49;;;;;;;5.03;1.70;;;17.60;99.90;;;;;;5073295;28;20123;-64
2023/07/03 07:33:15;;;;;;;5.55;1.33;;;17.50;99.90;;;;;;5073218;28;20492;-64
2023/07/03 07:35:42;;;;;;;7.03;1.75;;;17.40;99.90;;;;;;5073071;28;20047;-63
2023/07/03 07:38:08;;;;;;;4.28;1.45;;;17.30;99.90;;;;;;5072981;28;20041;-63
2023/07/03 07:40:33;;;;;;;5.88;1.65;;;17.30;99.90;;;;;;5072052;28;20374;-63
2023/07/03 07:42:59;;;;;;;5.88;1.70;;;17.60;99.90;;;;;;5071097;28;20036;-63
2023/07/03 07:45:25;;;;;;;4.65;1.20;;;18.00;99.90;;;;;;5072935;28;20044;-63
2023/07/03 07:47:51;;;;;;;7.07;1.55;;;18.10;99.90;;;;;;5073374;28;20051;-65
2023/07/03 07:50:17;;;;;;;4.28;1.70;;;17.90;99.90;;;;;;5072909;28;20035;-65
2023/07/03 07:52:43;;;;;;;3.55;1.48;;;17.60;99.90;;;;;;5072423;28;20035;-65
2023/07/03 07:55:09;;;;;;;5.05;1.67;;;17.50;99.90;;;;;;5073000;28;20381;-64
2023/07/03 07:57:35;;;;;;;3.30;1.10;;;17.30;99.90;;;;;;5071915;28;20068;-64
2023/07/03 08:00:01;;;;;;;3.88;1.52;;;17.20;99.90;;;;;;5073532;28;20072;-64
2023/07/03 08:02:27;;;;;;;3.20;1.50;;;17.00;99.90;;;;;;5072827;28;20037;-64
2023/07/03 08:04:52;;;;;;;7.00;1.63;;;17.00;99.90;;;;;;5071716;28;20052;-64
2023/07/03 08:07:18;;;;;;;5.50;1.42;;;17.20;99.90;;;;;;5073003;28;20040;-64
2023/07/03 08:09:44;;;;;;;5.22;1.30;;;17.50;99.90;;;;;;5071229;28;20434;-63
2023/07/03 08:12:10;;;;;;;4.90;1.60;;;17.90;99.90;;;;;;5072181;28;20048;-64
2023/07/03 08:14:35;;;;;;;4.55;1.42;;;18.20;99.90;;;;;;5072640;28;20127;-63
2023/07/03 08:17:01;;;;;;;4.75;1.23;;;18.50;99.90;;;;;;5072949;28;20045;-63
2023/07/03 08:19:27;;;;;;;3.22;1.30;;;18.60;99.90;;;;;;5072603;28;20499;-63
2023/07/03 08:21:55;;;;;;;4.10;1.60;;;18.70;99.90;;;;;;5072750;28;20048;-64
2023/07/03 08:24:21;;;;;;;4.50;1.25;;;18.50;99.90;;;;;;5072489;28;20392;-64
2023/07/03 08:26:49;;;;;;;2.85;1.20;;;18.40;99.90;;;;;;5072754;28;20037;-64
2023/07/03 08:29:15;;;;;;;4.35;1.25;;;18.30;99.90;;;;;;5072628;28;20085;-65
2023/07/03 08:31:41;;;;;;;2.35;0.80;;;18.20;99.90;;;;;;5072022;28;20056;-65
2023/07/03 08:34:07;;;;;;;3.38;0.95;;;18.00;99.90;;;;;;5071815;28;20147;-64
2023/07/03 08:36:33;;;;;;;2.33;0.90;;;17.90;99.90;;;;;;5072679;28;20570;-64
2023/07/03 08:39:01;;;;;;;2.33;0.73;;;18.10;99.90;;;;;;5072171;28;20045;-64
2023/07/03 08:41:27;;;;;;;3.80;1.33;;;18.30;99.90;;;;;;5072074;28;20044;-63
2023/07/03 08:43:56;;;;;;;2.63;1.05;;;18.60;99.90;;;;;;5072380;28;20050;-64
2023/07/03 08:46:25;;;;;;;3.60;1.20;;;18.90;99.90;;;;;;5071831;28;20113;-63
2023/07/03 08:48:54;;;;;;;2.55;0.85;;;19.20;99.90;;;;;;5072041;28;20033;-64
2023/07/03 08:51:24;;;;;;;2.00;0.77;;;19.30;99.90;;;;;;5072131;28;20469;-64
2023/07/03 08:53:56;;;;;;;2.08;0.60;;;19.30;99.90;;;;;;5071668;28;20036;-64
2023/07/03 08:56:26;;;;;;;2.47;0.70;;;19.10;99.90;;;;;;5072102;28;20097;-64
2023/07/03 08:58:56;;;;;;;2.35;0.77;;;19.10;99.90;;;;;;5072071;28;20074;-64
2023/07/03 09:01:30;;;;;;;2.42;0.88;;;19.00;99.90;;;;;;5071133;28;20097;-64
2023/07/03 09:04:47;;;;;;;2.13;0.63;;;19.10;99.90;;;;;;5070799;28;20055;-64
2023/07/03 09:07:37;;;;;;;3.88;0.90;;;19.20;99.90;;;;;;5058940;28;20048;-63
2023/07/03 09:10:12;;;;;;;3.33;0.80;;;19.00;99.90;;;;;;5070990;28;20392;-63
2023/07/03 09:12:50;;;;;;;2.00;0.80;;;18.90;99.90;;;;;;5072233;28;20469;-63
2023/07/03 09:15:29;;;;;;;2.92;1.08;;;18.90;99.90;;;;;;5072186;28;20041;-63
2023/07/03 09:17:57;;;;;;;2.40;1.00;;;18.70;99.90;;;;;;5072133;28;20090;-63
2023/07/03 09:20:25;;;;;;;2.67;1.15;;;18.70;99.90;;;;;;5071995;28;20036;-64
2023/07/03 09:23:11;;;;;;;2.05;0.82;;;18.60;99.90;;;;;;5072299;28;20070;-64
2023/07/03 09:26:01;;;;;;;2.70;1.10;;;18.50;99.90;;;;;;5070826;28;20136;-64
2023/07/03 09:28:28;;;;;;;2.83;0.90;;;18.40;99.90;;;;;;5072107;28;20044;-64
2023/07/03 09:30:54;;;;;;;2.63;1.02;;;18.30;99.90;;;;;;5071587;28;20040;-63
2023/07/03 09:33:20;;;;;;;3.28;0.80;;;18.20;99.90;;;;;;5070841;28;20040;-64
2023/07/03 09:35:47;;;;;;;3.17;0.80;;;18.30;99.90;;;;;;5072074;28;20119;-64
2023/07/03 09:38:34;;;;;;;3.20;1.05;;;18.60;99.90;;;;;;5071984;28;20086;-63
2023/07/03 09:41:04;;;;;;;2.65;0.93;;;18.80;99.90;;;;;;5071015;28;20036;-63
2023/07/03 09:43:30;;;;;;;2.10;1.08;;;18.90;99.90;;;;;;5071713;28;20083;-64
2023/07/03 09:46:14;;;;;;;2.75;1.13;;;19.00;99.90;;;;;;5072238;28;20389;-64
2023/07/03 09:48:40;;;;;;;3.20;1.35;;;19.40;99.90;;;;;;5071840;28;20049;-63
2023/07/03 09:51:27;;;;;;;2.70;1.02;;;19.60;99.90;;;;;;5072064;28;20575;-64
2023/07/03 09:53:56;;;;;;;3.30;1.10;;;19.50;99.90;;;;;;5070563;28;20134;-63
2023/07/03 09:56:24;;;;;;;3.28;1.05;;;19.40;99.90;;;;;;5071909;28;20401;-64
2023/07/03 09:58:58;;;;;;;4.20;1.20;;;19.10;99.90;;;;;;5071762;28;20041;-64
2023/07/03 10:01:27;;;;;;;5.05;1.33;;;19.00;99.90;;;;;;5071735;28;20119;-64
2023/07/03 10:04:07;;;;;;;3.17;0.98;;;18.90;99.90;;;;;;5071938;28;20131;-64
2023/07/03 10:06:35;;;;;;;2.95;0.93;;;18.80;99.90;;;;;;5075571;28;20117;-64
2023/07/03 10:09:06;;;;;;;2.28;1.00;;;19.00;99.90;;;;;;5074673;28;20514;-64
2023/07/03 10:11:57;;;;;;;3.60;1.10;;;19.10;99.90;;;;;;5074661;28;20040;-64
2023/07/03 10:14:31;;;;;;;5.07;1.40;;;19.20;99.90;;;;;;5074690;28;20500;-64
2023/07/03 10:17:00;;;;;;;3.95;1.48;;;19.10;99.90;;;;;;5073991;28;20050;-63
2023/07/03 10:19:26;;;;;;;5.07;1.38;;;18.90;99.90;;;;;;5074662;28;20420;-63
2023/07/03 10:21:53;;;;;;;5.25;1.63;;;18.70;99.90;;;;;;5075009;28;20048;-63
2023/07/03 10:24:20;;;;;;;4.25;1.27;;;18.60;99.90;;;;;;5073373;28;20131;-63
2023/07/03 10:26:50;;;;;;;4.55;1.50;;;18.50;99.90;;;;;;5074916;28;20048;-64
2023/07/03 10:29:28;;;;;;;3.75;1.25;;;18.70;99.90;;;;;;5074803;28;20044;-63
2023/07/03 10:32:03;;;;;;;2.30;1.10;;;19.00;99.90;;;;;;5074396;28;20052;-63
2023/07/03 10:34:47;;;;;;;3.92;1.33;;;19.00;99.90;;;;;;5074305;28;20500;-63
2023/07/03 10:37:15;;;;;;;4.93;1.42;;;18.90;99.90;;;;;;5074644;28;20040;-63
2023/07/03 10:39:47;;;;;;;2.53;0.90;;;18.80;99.90;;;;;;5072522;28;20040;-63
2023/07/03 10:42:44;;;;;;;3.05;1.13;;;18.70;99.90;;;;;;5071664;28;20043;-63
2023/07/03 10:45:12;;;;;;;3.65;0.95;;;19.10;99.90;;;;;;5073488;28;20059;-64
2023/07/03 10:47:47;;;;;;;3.58;0.98;;;19.30;99.90;;;;;;5074247;28;20044;-63
2023/07/03 10:50:13;;;;;;;2.13;0.98;;;19.30;99.90;;;;;;5074011;28;20411;-63
2023/07/03 10:53:10;;;;;;;2.20;0.75;;;18.90;99.90;;;;;;5073372;28;20045;-63
2023/07/03 10:55:45;;;;;;;3.10;1.10;;;18.70;99.90;;;;;;5073235;28;20127;-63
2023/07/03 10:58:15;;;;;;;3.45;0.93;;;18.80;99.90;;;;;;5074170;28;20063;-64
2023/07/03 11:01:10;;;;;;;2.85;1.20;;;19.50;99.90;;;;;;5074005;28;20472;-63
2023/07/03 11:03:46;;;;;;;3.33;0.90;;;20.20;99.90;;;;;;5073667;28;20124;-65
2023/07/03 11:06:22;;;;;;;4.00;1.13;;;20.40;99.90;;;;;;5074495;28;20040;-63
2023/07/03 11:08:57;;;;;;;3.55;1.00;;;20.30;99.90;;;;;;5073017;28;20041;-63
2023/07/03 11:11:32;;;;;;;4.15;1.20;;;20.20;99.90;;;;;;5074034;28;20047;-64
2023/07/03 11:14:30;;;;;;;3.25;1.23;;;20.30;99.90;;;;;;5074134;28;20166;-64
2023/07/03 11:17:17;;;;;;;4.40;0.93;;;20.20;99.90;;;;;;5073813;28;20045;-64
2023/07/03 11:20:16;;;;;;;1.65;0.70;;;19.90;99.90;;;;;;5074079;28;20102;-64
2023/07/03 11:23:30;;;;;;;2.35;0.70;;;20.00;99.90;;;;;;5073208;28;20044;-64
2023/07/03 11:26:24;;;;;;;3.90;0.95;;;20.30;99.90;;;;;;5055317;28;20056;-64
2023/07/03 11:28:54;;;;;;;3.55;0.75;;;20.30;99.90;;;;;;5074218;28;20416;-63
2023/07/03 11:31:22;;;;;;;2.70;0.90;;;20.00;99.90;;;;;;5072868;28;20125;-65
2023/07/03 11:33:49;;;;;;;3.08;1.42;;;19.50;99.90;;;;;;5073541;28;20041;-64
2023/07/03 11:36:38;;;;;;;2.35;0.90;;;19.10;99.90;;;;;;5073770;28;20049;-64
2023/07/03 11:39:24;;;;;;;2.50;0.90;;;18.90;99.90;;;;;;5072489;28;20795;-64
2023/07/03 11:42:02;;;;;;;2.78;0.80;;;19.00;99.90;;;;;;5073753;28;20070;-65
2023/07/03 11:44:27;;;;;;;6.47;1.70;;;19.00;99.90;;;;;;5073217;28;20048;-64
2023/07/03 11:47:18;;;;;;;3.58;1.38;;;19.00;99.90;;;;;;5072920;28;20052;-64
2023/07/03 11:49:53;;;;;;;2.42;0.80;;;18.90;99.90;;;;;;5073160;28;20037;-64
2023/07/03 11:52:32;;;;;;;2.95;0.93;;;18.60;99.90;;;;;;5072642;28;20097;-63
2023/07/03 11:55:00;;;;;;;3.25;0.90;;;18.50;99.90;;;;;;5072598;28;20129;-64
2023/07/03 11:57:37;;;;;;;2.17;0.70;;;18.60;99.90;;;;;;5073206;28;20048;-64
2023/07/03 12:00:25;;;;;;;4.28;1.05;;;18.90;99.90;;;;;;5072751;28;20040;-65
2023/07/03 12:03:02;;;;;;;2.75;0.85;;;19.40;99.90;;;;;;5071863;28;20040;-65
2023/07/03 12:05:43;;;;;;;2.45;1.13;;;19.60;99.90;;;;;;5070495;28;20047;-65
2023/07/03 12:08:19;;;;;;;1.83;0.90;;;19.70;99.90;;;;;;5072933;28;20080;-64
2023/07/03 12:10:52;;;;;;;2.38;0.75;;;19.80;99.90;;;;;;5072722;28;20041;-64
2023/07/03 12:13:39;;;;;;;1.88;0.77;;;20.00;99.90;;;;;;5071428;28;20049;-65
2023/07/03 12:16:42;;;;;;;3.22;1.00;;;20.40;99.90;;;;;;5052492;28;20123;-64
2023/07/03 12:19:11;;;;;;;3.72;0.80;;;20.70;99.90;;;;;;5056688;28;20370;-65
2023/07/03 12:21:47;;;;;;;3.28;0.93;;;20.70;99.90;;;;;;5072874;28;20079;-66
2023/07/03 12:24:23;;;;;;;1.70;0.80;;;20.60;99.90;;;;;;5071813;28;20032;-65
2023/07/03 12:27:00;;;;;;;5.07;1.05;;;20.30;99.90;;;;;;5072125;28;20048;-65
2023/07/03 12:29:27;;;;;;;2.28;0.90;;;19.90;99.90;;;;;;5071358;28;20037;-65
2023/07/03 12:31:58;;;;;;;3.28;0.90;;;19.40;99.90;;;;;;5072082;28;20378;-64
2023/07/03 12:34:26;;;;;;;3.20;0.80;;;19.10;99.90;;;;;;5072178;28;20066;-64
2023/07/03 12:37:17;;;;;;;3.80;1.10;;;18.80;99.90;;;;;;5072807;28;20040;-63
2023/07/03 12:39:47;;;;;;;2.38;0.70;;;18.60;99.90;;;;;;5058383;28;20496;-64
2023/07/03 12:42:22;;;;;;;3.70;1.10;;;18.60;99.90;;;;;;5072144;28;20051;-64
2023/07/03 12:44:48;;;;;;;4.53;1.00;;;18.70;99.90;;;;;;5072013;28;20047;-64
2023/07/03 12:47:17;;;;;;;3.10;0.80;;;19.10;99.90;;;;;;5072268;28;20047;-64
2023/07/03 12:49:55;;;;;;;1.92;0.88;;;19.50;99.90;;;;;;5072165;28;20043;-64
2023/07/03 12:52:24;;;;;;;2.05;0.80;;;19.60;99.90;;;;;;5072263;28;20381;-64
2023/07/03 12:54:51;;;;;;;2.45;0.90;;;19.50;99.90;;;;;;5072228;28;20036;-64
2023/07/03 12:57:20;;;;;;;3.67;1.00;;;19.30;99.90;;;;;;5071940;28;20540;-63
2023/07/03 12:59:53;;;;;;;2.72;0.90;;;19.10;99.90;;;;;;5072082;28;20141;-66